createdAt,value
2023-05-08T00:00:47.683Z,11.88
2023-05-08T00:01:50.214Z,11.89
2023-05-08T00:02:54.973Z,11.89
2023-05-08T00:03:57.480Z,11.88
2023-05-08T00:05:05.221Z,11.93
2023-05-08T00:06:07.851Z,11.90
2023-05-08T00:07:12.499Z,11.88
2023-05-08T00:08:15.561Z,11.84
2023-05-08T00:09:20.353Z,11.82
2023-05-08T00:10:22.375Z,11.83
2023-05-08T00:11:27.188Z,11.85
2023-05-08T00:12:29.303Z,11.84
2023-05-08T00:13:36.575Z,11.86
2023-05-08T00:14:38.596Z,11.86
2023-05-08T00:15:43.442Z,11.86
2023-05-08T00:16:45.605Z,11.83
2023-05-08T00:17:50.364Z,11.85
2023-05-08T00:18:53.950Z,11.88
2023-05-08T00:19:58.902Z,11.88
2023-05-08T00:21:01.100Z,11.89
2023-05-08T00:22:05.708Z,11.84
2023-05-08T00:23:07.794Z,11.83
2023-05-08T00:24:12.739Z,11.81
2023-05-08T00:25:14.867Z,11.83
2023-05-08T00:26:19.559Z,11.81
2023-05-08T00:27:21.861Z,11.83
2023-05-08T00:28:26.501Z,11.81
2023-05-08T00:29:31.304Z,11.81
2023-05-08T00:30:35.987Z,11.82
2023-05-08T00:31:38.030Z,11.85
2023-05-08T00:32:42.880Z,11.83
2023-05-08T00:33:45.029Z,11.85
2023-05-08T00:34:49.656Z,11.85
2023-05-08T00:35:51.769Z,11.87
2023-05-08T00:36:56.492Z,11.84
2023-05-08T00:37:58.592Z,11.84
2023-05-08T00:39:03.213Z,11.83
2023-05-08T00:40:06.693Z,11.83
2023-05-08T00:41:11.343Z,11.81
2023-05-08T00:42:13.369Z,11.81
2023-05-08T00:43:18.035Z,11.81
2023-05-08T00:44:20.073Z,11.82
2023-05-08T00:45:28.130Z,11.83
2023-05-08T00:46:31.183Z,11.82
2023-05-08T00:47:35.976Z,11.83
2023-05-08T00:48:40.166Z,11.83
2023-05-08T00:49:45.797Z,11.84
2023-05-08T00:50:48.730Z,11.85
2023-05-08T00:51:55.894Z,11.83
2023-05-08T00:52:59.142Z,11.83
2023-05-08T00:54:03.936Z,11.86
2023-05-08T00:55:07.845Z,11.86
2023-05-08T00:56:13.983Z,11.83
2023-05-08T00:57:16.840Z,11.83
2023-05-08T00:58:22.309Z,11.88
2023-05-08T00:59:26.251Z,11.84
2023-05-08T01:00:35.194Z,11.84
2023-05-08T01:01:38.095Z,11.83
2023-05-08T01:02:43.550Z,11.81
2023-05-08T01:03:45.939Z,11.83
2023-05-08T01:04:51.338Z,11.82
2023-05-08T01:05:54.770Z,11.82
2023-05-08T01:06:59.514Z,11.83
2023-05-08T01:08:01.597Z,11.83
2023-05-08T01:09:08.095Z,11.85
2023-05-08T01:10:11.152Z,11.81
2023-05-08T01:11:22.002Z,11.83
2023-05-08T01:12:31.343Z,11.84
2023-05-08T01:13:48.916Z,11.90
2023-05-08T01:15:04.252Z,11.86
2023-05-08T01:16:17.477Z,11.88
2023-05-08T01:17:42.718Z,11.84
2023-05-08T01:18:53.950Z,11.86
2023-05-08T01:20:06.304Z,11.89
2023-05-08T01:21:16.811Z,11.88
2023-05-08T01:22:32.815Z,11.85
2023-05-08T01:24:07.462Z,11.85
2023-05-08T01:25:35.281Z,11.92
2023-05-08T01:27:18.408Z,11.94
2023-05-08T01:28:55.709Z,11.92
2023-05-08T01:30:42.008Z,11.89
2023-05-08T01:32:07.947Z,11.91
2023-05-08T01:33:20.676Z,11.92
2023-05-08T01:34:27.270Z,11.98
2023-05-08T01:35:36.467Z,11.98
2023-05-08T01:36:47.418Z,12.01
2023-05-08T01:38:00.932Z,12.01
2023-05-08T01:39:18.221Z,12.02
2023-05-08T01:40:34.706Z,12.07
2023-05-08T01:41:37.956Z,12.06
2023-05-08T01:42:49.650Z,12.05
2023-05-08T01:43:54.092Z,12.06
2023-05-08T01:45:03.658Z,12.04
2023-05-08T01:46:13.714Z,12.06
2023-05-08T01:47:27.022Z,12.07
2023-05-08T01:48:33.142Z,12.05
2023-05-08T01:49:43.000Z,12.07
2023-05-08T01:50:47.979Z,12.06
2023-05-08T01:52:00.175Z,12.03
2023-05-08T01:53:10.112Z,12.05
2023-05-08T01:54:20.529Z,12.05
2023-05-08T01:55:30.470Z,12.06
2023-05-08T01:56:35.837Z,12.03
2023-05-08T01:57:49.477Z,12.01
2023-05-08T01:59:02.808Z,11.99
2023-05-08T02:00:06.770Z,12.00
2023-05-08T02:01:13.885Z,12.00
2023-05-08T02:02:21.989Z,11.99
2023-05-08T02:03:25.492Z,11.98
2023-05-08T02:04:31.401Z,11.95
2023-05-08T02:05:35.456Z,11.99
2023-05-08T02:06:41.763Z,11.97
2023-05-08T02:07:46.875Z,11.93
2023-05-08T02:08:52.710Z,11.91
2023-05-08T02:09:55.889Z,11.90
2023-05-08T02:11:03.620Z,11.92
2023-05-08T02:12:08.426Z,11.96
2023-05-08T02:13:14.443Z,11.94
2023-05-08T02:14:19.912Z,11.96
2023-05-08T02:15:27.461Z,11.97
2023-05-08T02:16:31.268Z,11.97
2023-05-08T02:17:41.278Z,11.97
2023-05-08T02:18:47.297Z,11.95
2023-05-08T02:19:54.156Z,11.93
2023-05-08T02:20:59.672Z,11.91
2023-05-08T02:22:05.673Z,11.92
2023-05-08T02:23:08.805Z,11.94
2023-05-08T02:24:14.539Z,11.93
2023-05-08T02:25:17.182Z,11.91
2023-05-08T02:26:23.077Z,11.91
2023-05-08T02:27:28.243Z,11.96
2023-05-08T02:28:33.968Z,11.97
2023-05-08T02:29:36.716Z,11.97
2023-05-08T02:30:43.276Z,11.96
2023-05-08T02:31:47.087Z,11.97
2023-05-08T02:32:58.930Z,11.95
2023-05-08T02:36:07.064Z,11.90
2023-05-08T02:37:11.744Z,11.89
2023-05-08T02:38:18.617Z,11.86
2023-05-08T02:39:25.606Z,11.87
2023-05-08T02:40:32.458Z,11.85
2023-05-08T02:41:35.557Z,11.82
2023-05-08T02:42:40.451Z,11.81
2023-05-08T02:43:42.864Z,11.79
2023-05-08T02:44:47.861Z,11.78
2023-05-08T02:45:57.326Z,11.76
2023-05-08T02:47:08.699Z,11.77
2023-05-08T02:48:26.662Z,11.76
2023-05-08T02:49:40.912Z,11.74
2023-05-08T02:50:50.915Z,11.74
2023-05-08T02:52:00.106Z,11.73
2023-05-08T02:53:05.259Z,11.72
2023-05-08T02:54:14.674Z,11.72
2023-05-08T02:55:30.029Z,11.77
2023-05-08T02:56:40.359Z,11.81
2023-05-08T02:57:48.377Z,11.80
2023-05-08T02:59:02.380Z,11.78
2023-05-08T03:00:12.820Z,11.78
2023-05-08T03:01:24.688Z,11.79
2023-05-08T03:02:29.165Z,11.76
2023-05-08T03:03:41.914Z,11.76
2023-05-08T03:04:51.644Z,11.76
2023-05-08T03:05:59.643Z,11.76
2023-05-08T03:07:03.424Z,11.74
2023-05-08T03:08:13.127Z,11.74
2023-05-08T03:09:19.730Z,11.74
2023-05-08T03:10:28.023Z,11.73
2023-05-08T03:11:43.279Z,11.72
2023-05-08T03:12:52.590Z,11.70
2023-05-08T03:13:59.298Z,11.68
2023-05-08T03:15:10.030Z,11.68
2023-05-08T03:16:17.582Z,11.66
2023-05-08T03:17:25.918Z,11.71
2023-05-08T03:18:35.283Z,11.71
2023-05-08T03:19:42.210Z,11.71
2023-05-08T03:20:47.976Z,11.73
2023-05-08T03:21:54.864Z,11.72
2023-05-08T03:22:57.689Z,11.70
2023-05-08T03:24:05.078Z,11.73
2023-05-08T03:25:10.788Z,11.71
2023-05-08T03:26:20.300Z,11.70
2023-05-08T03:27:23.289Z,11.72
2023-05-08T03:28:29.203Z,11.72
2023-05-08T03:29:33.699Z,11.72
2023-05-08T03:30:40.218Z,11.69
2023-05-08T03:31:44.141Z,11.68
2023-05-08T03:32:49.709Z,11.66
2023-05-08T03:33:55.932Z,11.67
2023-05-08T03:35:02.536Z,11.65
2023-05-08T03:36:05.392Z,11.63
2023-05-08T03:37:10.515Z,11.63
2023-05-08T03:38:13.100Z,11.64
2023-05-08T03:39:17.878Z,11.64
2023-05-08T03:40:20.476Z,11.65
2023-05-08T03:41:25.561Z,11.64
2023-05-08T03:42:28.142Z,11.65
2023-05-08T03:43:34.538Z,11.65
2023-05-08T03:44:38.121Z,11.70
2023-05-08T03:45:43.632Z,11.71
2023-05-08T03:46:47.499Z,11.70
2023-05-08T03:48:18.847Z,11.69
2023-05-08T03:49:28.150Z,11.70
2023-05-08T03:50:30.737Z,11.70
2023-05-08T03:51:37.401Z,11.67
2023-05-08T03:52:39.455Z,11.66
2023-05-08T03:53:44.132Z,11.68
2023-05-08T03:54:46.330Z,11.66
2023-05-08T03:55:51.007Z,11.71
2023-05-08T03:56:54.488Z,11.70
2023-05-08T03:58:02.977Z,11.72
2023-05-08T03:59:12.340Z,11.71
2023-05-08T04:00:25.002Z,11.72
2023-05-08T04:01:40.085Z,11.74
2023-05-08T04:02:52.813Z,11.76
2023-05-08T04:04:01.790Z,11.76
2023-05-08T04:05:26.382Z,11.74
2023-05-08T04:06:48.707Z,11.71
2023-05-08T04:07:59.381Z,11.75
2023-05-08T04:09:08.039Z,11.74
2023-05-08T04:10:19.075Z,11.74
2023-05-08T04:11:30.742Z,11.74
2023-05-08T04:12:40.165Z,11.75
2023-05-08T04:13:49.349Z,11.74
2023-05-08T04:14:58.521Z,11.79
2023-05-08T04:16:07.559Z,11.76
2023-05-08T04:17:15.002Z,11.74
2023-05-08T04:18:19.211Z,11.74
2023-05-08T04:19:27.930Z,11.74
2023-05-08T04:20:34.394Z,11.75
2023-05-08T04:21:42.242Z,11.76
2023-05-08T04:22:47.057Z,11.75
2023-05-08T04:23:54.445Z,11.77
2023-05-08T04:25:00.687Z,11.78
2023-05-08T04:26:06.830Z,11.80
2023-05-08T04:27:10.181Z,11.82
2023-05-08T04:28:15.086Z,11.80
2023-05-08T04:29:18.788Z,11.80
2023-05-08T04:30:23.651Z,11.80
2023-05-08T04:31:27.899Z,11.81
2023-05-08T04:32:35.116Z,11.80
2023-05-08T04:33:37.346Z,11.80
2023-05-08T04:34:42.272Z,11.76
2023-05-08T04:35:47.386Z,11.76
2023-05-08T04:36:52.444Z,11.83
2023-05-08T04:37:54.743Z,11.82
2023-05-08T04:38:59.504Z,11.82
2023-05-08T04:40:02.436Z,11.83
2023-05-08T04:41:07.441Z,11.80
2023-05-08T04:42:09.602Z,11.79
2023-05-08T04:43:14.434Z,11.81
2023-05-08T04:44:16.555Z,11.78
2023-05-08T04:45:21.711Z,11.79
2023-05-08T04:46:24.829Z,11.85
2023-05-08T04:47:29.696Z,11.81
2023-05-08T04:48:34.061Z,11.83
2023-05-08T04:49:38.720Z,11.82
2023-05-08T04:50:40.890Z,11.81
2023-05-08T04:51:48.177Z,11.82
2023-05-08T04:52:50.224Z,11.83
2023-05-08T04:53:54.984Z,11.84
2023-05-08T04:54:57.017Z,11.84
2023-05-08T04:56:01.747Z,11.87
2023-05-08T04:57:04.225Z,11.89
2023-05-08T04:58:08.838Z,11.90
2023-05-08T04:59:12.480Z,11.91
2023-05-08T05:00:18.900Z,11.91
2023-05-08T05:01:20.946Z,11.92
2023-05-08T05:02:25.639Z,11.95
2023-05-08T05:03:27.725Z,11.94
2023-05-08T05:04:32.411Z,11.98
2023-05-08T05:05:38.715Z,11.99
2023-05-08T05:06:43.945Z,12.01
2023-05-08T05:07:48.607Z,12.01
2023-05-08T05:08:53.244Z,12.03
2023-05-08T05:09:55.302Z,12.04
2023-05-08T05:12:06.318Z,12.08
2023-05-08T05:13:08.475Z,12.11
2023-05-08T05:14:13.202Z,12.14
2023-05-08T05:15:15.904Z,12.16
2023-05-08T05:16:20.585Z,12.18
2023-05-08T05:17:22.662Z,12.19
2023-05-08T05:18:27.366Z,12.24
2023-05-08T05:19:29.590Z,12.24
2023-05-08T05:20:34.817Z,12.26
2023-05-08T05:21:38.188Z,12.32
2023-05-08T05:22:42.819Z,12.34
2023-05-08T05:23:47.508Z,12.37
2023-05-08T05:24:52.389Z,12.39
2023-05-08T05:25:54.392Z,12.41
2023-05-08T05:27:00.615Z,12.42
2023-05-08T05:28:02.642Z,12.46
2023-05-08T05:29:07.556Z,12.41
2023-05-08T05:30:10.319Z,12.46
2023-05-08T05:31:15.227Z,12.52
2023-05-08T05:32:17.287Z,12.52
2023-05-08T05:33:22.036Z,12.52
2023-05-08T05:34:24.115Z,12.54
2023-05-08T05:35:28.746Z,12.54
2023-05-08T05:36:30.943Z,12.60
2023-05-08T05:37:36.031Z,12.57
2023-05-08T05:38:38.131Z,12.57
2023-05-08T05:39:45.383Z,12.59
2023-05-08T05:40:47.549Z,12.63
2023-05-08T05:41:52.278Z,12.62
2023-05-08T05:42:56.959Z,12.68
2023-05-08T05:43:59.029Z,12.68
2023-05-08T05:45:03.890Z,12.68
2023-05-08T05:46:06.160Z,12.72
2023-05-08T05:47:11.387Z,12.74
2023-05-08T05:48:13.537Z,12.76
2023-05-08T05:49:18.278Z,12.79
2023-05-08T05:50:21.682Z,12.81
2023-05-08T05:51:27.806Z,12.83
2023-05-08T05:52:29.870Z,12.86
2023-05-08T05:53:34.662Z,12.90
2023-05-08T05:54:36.680Z,12.89
2023-05-08T05:55:43.974Z,12.95
2023-05-08T05:56:46.034Z,12.98
2023-05-08T05:57:51.170Z,13.03
2023-05-08T05:58:53.252Z,13.06
2023-05-08T05:59:59.923Z,13.13
2023-05-08T06:01:01.936Z,13.19
2023-05-08T06:02:06.666Z,13.25
2023-05-08T06:03:09.058Z,13.30
2023-05-08T06:04:13.845Z,13.39
2023-05-08T06:05:15.955Z,13.47
2023-05-08T06:06:20.616Z,13.55
2023-05-08T06:07:22.792Z,13.64
2023-05-08T06:08:27.404Z,13.71
2023-05-08T06:09:30.241Z,13.81
2023-05-08T06:10:34.941Z,13.85
2023-05-08T06:11:39.668Z,13.94
2023-05-08T06:12:44.426Z,14.02
2023-05-08T06:13:47.277Z,14.14
2023-05-08T06:14:54.811Z,14.19
2023-05-08T06:15:57.051Z,14.30
2023-05-08T06:17:01.734Z,14.38
2023-05-08T06:18:04.123Z,14.41
2023-05-08T06:19:08.903Z,14.44
2023-05-08T06:20:11.348Z,14.52
2023-05-08T06:21:16.332Z,14.57
2023-05-08T06:22:23.357Z,14.67
2023-05-08T06:23:28.428Z,14.76
2023-05-08T06:24:30.824Z,14.73
2023-05-08T06:25:35.487Z,14.85
2023-05-08T06:26:40.202Z,14.91
2023-05-08T06:27:44.839Z,14.96
2023-05-08T06:28:49.732Z,14.98
2023-05-08T06:29:54.895Z,14.99
2023-05-08T06:30:56.969Z,15.08
2023-05-08T06:32:01.729Z,15.13
2023-05-08T06:33:04.180Z,15.19
2023-05-08T06:34:09.427Z,15.24
2023-05-08T06:35:12.537Z,15.30
2023-05-08T06:36:17.413Z,15.32
2023-05-08T06:37:19.565Z,15.33
2023-05-08T06:38:24.562Z,15.42
2023-05-08T06:39:26.661Z,15.44
2023-05-08T06:40:31.676Z,15.47
2023-05-08T06:41:33.924Z,15.53
2023-05-08T06:42:41.469Z,15.59
2023-05-08T06:43:43.533Z,15.60
2023-05-08T06:44:48.165Z,15.61
2023-05-08T06:45:50.505Z,15.64
2023-05-08T06:46:55.518Z,15.66
2023-05-08T06:47:57.784Z,15.67
2023-05-08T06:49:02.452Z,15.65
2023-05-08T06:50:05.252Z,15.70
2023-05-08T06:51:09.871Z,15.63
2023-05-08T06:52:14.513Z,15.61
2023-05-08T06:53:16.549Z,15.68
2023-05-08T06:54:21.177Z,15.70
2023-05-08T06:55:23.457Z,15.76
2023-05-08T06:56:28.127Z,15.81
2023-05-08T06:57:30.635Z,15.86
2023-05-08T06:58:37.885Z,15.86
2023-05-08T06:59:42.512Z,15.85
2023-05-08T07:00:47.208Z,15.92
2023-05-08T07:01:49.346Z,15.94
2023-05-08T07:02:54.947Z,15.97
2023-05-08T07:03:57.008Z,15.97
2023-05-08T07:05:02.015Z,15.99
2023-05-08T07:06:07.424Z,16.00
2023-05-08T07:07:09.461Z,16.02
2023-05-08T07:08:14.091Z,16.05
2023-05-08T07:09:19.580Z,16.10
2023-05-08T07:10:24.417Z,16.15
2023-05-08T07:11:29.124Z,16.17
2023-05-08T07:12:31.147Z,16.20
2023-05-08T07:13:38.598Z,16.26
2023-05-08T07:14:40.637Z,16.30
2023-05-08T07:15:45.298Z,16.27
2023-05-08T07:16:47.410Z,16.25
2023-05-08T07:17:52.189Z,16.27
2023-05-08T07:18:54.271Z,16.29
2023-05-08T07:19:58.926Z,16.31
2023-05-08T07:21:03.568Z,16.38
2023-05-08T07:22:06.031Z,16.37
2023-05-08T07:23:10.769Z,16.37
2023-05-08T07:24:15.417Z,16.42
2023-05-08T07:25:17.613Z,16.43
2023-05-08T07:26:22.759Z,16.37
2023-05-08T07:27:24.883Z,16.45
2023-05-08T07:28:29.788Z,16.53
2023-05-08T07:29:37.788Z,16.58
2023-05-08T07:30:39.871Z,16.63
2023-05-08T07:31:46.054Z,16.67
2023-05-08T07:32:50.860Z,16.54
2023-05-08T07:33:52.979Z,16.62
2023-05-08T07:34:57.631Z,16.68
2023-05-08T07:36:02.305Z,16.73
2023-05-08T07:37:04.382Z,16.77
2023-05-08T07:38:09.332Z,16.83
2023-05-08T07:39:11.516Z,16.90
2023-05-08T07:40:16.504Z,16.78
2023-05-08T07:41:21.191Z,16.84
2023-05-08T07:42:23.260Z,16.91
2023-05-08T07:43:27.948Z,16.82
2023-05-08T07:44:43.537Z,16.80
2023-05-08T07:45:52.235Z,16.88
2023-05-08T07:46:54.291Z,16.90
2023-05-08T07:48:00.447Z,16.92
2023-05-08T07:49:02.536Z,16.97
2023-05-08T07:50:08.070Z,16.90
2023-05-08T07:51:11.423Z,17.00
2023-05-08T07:52:16.080Z,17.06
2023-05-08T07:53:18.357Z,17.09
2023-05-08T07:54:23.025Z,17.12
2023-05-08T07:55:25.190Z,17.17
2023-05-08T07:56:30.210Z,17.04
2023-05-08T07:57:37.214Z,17.12
2023-05-08T07:58:42.860Z,17.15
2023-05-08T07:59:50.137Z,17.09
2023-05-08T08:00:52.279Z,17.12
2023-05-08T08:01:56.978Z,17.09
2023-05-08T08:02:59.180Z,17.14
2023-05-08T08:04:04.071Z,17.14
2023-05-08T08:05:09.427Z,17.21
2023-05-08T08:06:14.087Z,17.21
2023-05-08T08:07:16.191Z,17.29
2023-05-08T08:08:21.056Z,17.34
2023-05-08T08:09:23.289Z,17.50
2023-05-08T08:10:28.304Z,17.60
2023-05-08T08:11:30.344Z,17.64
2023-05-08T08:12:35.218Z,17.70
2023-05-08T08:13:39.852Z,17.83
2023-05-08T08:14:41.949Z,17.80
2023-05-08T08:15:49.173Z,17.80
2023-05-08T08:16:51.306Z,17.90
2023-05-08T08:17:56.019Z,17.98
2023-05-08T08:19:00.767Z,18.08
2023-05-08T08:20:05.569Z,17.88
2023-05-08T08:21:10.868Z,18.04
2023-05-08T08:22:13.052Z,18.00
2023-05-08T08:23:17.749Z,18.09
2023-05-08T08:24:20.010Z,18.15
2023-05-08T08:25:24.996Z,18.22
2023-05-08T08:26:27.154Z,18.28
2023-05-08T08:27:32.458Z,18.08
2023-05-08T08:28:34.572Z,18.20
2023-05-08T08:29:39.333Z,18.24
2023-05-08T08:30:41.415Z,18.21
2023-05-08T08:31:48.742Z,18.30
2023-05-08T08:32:50.858Z,18.38
2023-05-08T08:33:55.533Z,18.40
2023-05-08T08:34:57.594Z,18.39
2023-05-08T08:36:02.291Z,18.42
2023-05-08T08:37:05.923Z,18.43
2023-05-08T08:38:10.582Z,18.48
2023-05-08T08:39:13.875Z,18.42
2023-05-08T08:40:19.958Z,18.47
2023-05-08T08:41:22.371Z,18.47
2023-05-08T08:42:27.137Z,18.44
2023-05-08T08:43:29.689Z,18.45
2023-05-08T08:44:34.400Z,18.37
2023-05-08T08:45:36.831Z,18.36
2023-05-08T08:46:47.688Z,18.45
2023-05-08T08:47:56.497Z,18.55
2023-05-08T08:48:59.601Z,18.62
2023-05-08T08:50:07.071Z,18.69
2023-05-08T08:51:17.106Z,18.87
2023-05-08T08:52:29.920Z,19.00
2023-05-08T08:53:37.675Z,19.14
2023-05-08T08:54:44.740Z,19.27
2023-05-08T08:55:50.689Z,19.27
2023-05-08T08:56:56.517Z,19.18
2023-05-08T08:58:12.855Z,19.31
2023-05-08T08:59:19.733Z,19.37
2023-05-08T09:00:26.348Z,19.36
2023-05-08T09:01:30.514Z,19.37
2023-05-08T09:02:35.412Z,19.33
2023-05-08T09:03:40.553Z,19.32
2023-05-08T09:04:45.578Z,19.34
2023-05-08T09:05:51.101Z,19.37
2023-05-08T09:06:54.127Z,19.37
2023-05-08T09:07:59.445Z,19.44
2023-05-08T09:09:02.299Z,19.49
2023-05-08T09:10:15.428Z,19.49
2023-05-08T09:11:20.112Z,19.59
2023-05-08T09:12:24.815Z,19.63
2023-05-08T09:13:27.109Z,19.55
2023-05-08T09:14:32.141Z,19.60
2023-05-08T09:15:34.377Z,19.64
2023-05-08T09:16:40.201Z,19.68
2023-05-08T09:17:42.367Z,19.67
2023-05-08T09:18:49.609Z,19.80
2023-05-08T09:19:52.708Z,19.93
2023-05-08T09:20:57.633Z,20.05
2023-05-08T09:22:00.702Z,20.17
2023-05-08T09:23:05.576Z,20.25
2023-05-08T09:24:07.746Z,20.33
2023-05-08T09:25:13.867Z,20.45
2023-05-08T09:26:27.818Z,20.61
2023-05-08T09:27:34.905Z,20.55
2023-05-08T09:28:39.521Z,20.76
2023-05-08T09:29:41.690Z,20.79
2023-05-08T09:30:52.666Z,20.97
2023-05-08T09:31:54.753Z,21.18
2023-05-08T09:33:04.591Z,21.31
2023-05-08T09:34:13.414Z,21.28
2023-05-08T09:35:15.813Z,20.78
2023-05-08T09:36:29.170Z,21.10
2023-05-08T09:37:31.573Z,21.23
2023-05-08T09:38:37.959Z,21.27
2023-05-08T09:39:41.682Z,21.38
2023-05-08T09:40:46.330Z,21.30
2023-05-08T09:42:00.885Z,20.98
2023-05-08T09:43:13.975Z,21.27
2023-05-08T09:44:18.694Z,21.13
2023-05-08T09:45:31.994Z,21.21
2023-05-08T09:46:35.054Z,21.17
2023-05-08T09:47:40.508Z,21.28
2023-05-08T09:48:43.095Z,21.35
2023-05-08T09:50:04.189Z,21.31
2023-05-08T09:51:06.879Z,21.22
2023-05-08T09:52:18.261Z,21.17
2023-05-08T09:53:22.880Z,21.15
2023-05-08T09:54:24.906Z,20.89
2023-05-08T09:55:29.621Z,20.85
2023-05-08T09:56:33.207Z,20.79
2023-05-08T09:57:39.907Z,20.70
2023-05-08T09:58:43.608Z,20.70
2023-05-08T09:59:48.296Z,20.67
2023-05-08T10:00:52.999Z,20.72
2023-05-08T10:01:56.116Z,20.84
2023-05-08T10:03:01.982Z,20.87
2023-05-08T10:04:06.249Z,20.97
2023-05-08T10:05:27.452Z,21.07
2023-05-08T10:06:30.065Z,21.13
2023-05-08T10:07:37.382Z,21.22
2023-05-08T10:08:39.420Z,21.26
2023-05-08T10:10:00.856Z,21.06
2023-05-08T10:11:14.835Z,21.05
2023-05-08T10:12:19.564Z,20.98
2023-05-08T10:13:21.819Z,20.87
2023-05-08T10:14:27.676Z,20.93
2023-05-08T10:15:33.798Z,21.05
2023-05-08T10:16:42.126Z,21.07
2023-05-08T10:17:53.245Z,21.21
2023-05-08T10:19:02.302Z,21.22
2023-05-08T10:20:10.528Z,21.30
2023-05-08T10:21:15.882Z,21.42
2023-05-08T10:22:22.847Z,21.43
2023-05-08T10:23:28.476Z,21.45
2023-05-08T10:24:36.771Z,21.56
2023-05-08T10:25:48.148Z,21.62
2023-05-08T10:27:06.383Z,21.50
2023-05-08T10:28:17.065Z,21.77
2023-05-08T10:29:27.703Z,21.93
2023-05-08T10:30:31.928Z,22.02
2023-05-08T10:31:39.972Z,22.00
2023-05-08T10:32:48.689Z,21.98
2023-05-08T10:33:55.358Z,22.06
2023-05-08T10:35:03.424Z,22.17
2023-05-08T10:36:10.119Z,21.77
2023-05-08T10:37:15.449Z,22.07
2023-05-08T10:38:22.648Z,22.15
2023-05-08T10:39:26.300Z,22.17
2023-05-08T10:40:31.383Z,22.17
2023-05-08T10:41:34.784Z,22.10
2023-05-08T10:42:39.994Z,22.02
2023-05-08T10:43:46.348Z,22.01
2023-05-08T10:44:51.766Z,22.03
2023-05-08T10:45:55.924Z,21.93
2023-05-08T10:47:10.832Z,21.86
2023-05-08T10:48:31.888Z,21.92
2023-05-08T10:49:44.420Z,21.85
2023-05-08T10:51:01.049Z,21.81
2023-05-08T10:52:16.639Z,21.74
2023-05-08T10:53:34.589Z,21.59
2023-05-08T10:54:53.169Z,21.51
2023-05-08T10:55:58.952Z,21.55
2023-05-08T10:57:14.403Z,21.30
2023-05-08T10:58:33.415Z,21.08
2023-05-08T10:59:36.315Z,21.20
2023-05-08T11:01:15.352Z,21.24
2023-05-08T11:02:32.199Z,21.06
2023-05-08T11:03:40.960Z,21.10
2023-05-08T11:04:46.743Z,21.14
2023-05-08T11:05:50.725Z,21.10
2023-05-08T11:06:55.785Z,20.79
2023-05-08T11:07:59.910Z,20.66
2023-05-08T11:09:08.863Z,20.62
2023-05-08T11:10:17.271Z,20.43
2023-05-08T11:11:29.040Z,20.34
2023-05-08T11:12:36.617Z,20.25
2023-05-08T11:13:43.640Z,20.15
2023-05-08T11:14:58.718Z,20.27
2023-05-08T11:16:01.850Z,20.38
2023-05-08T11:17:09.212Z,20.47
2023-05-08T11:18:12.353Z,20.41
2023-05-08T11:19:22.289Z,20.27
2023-05-08T11:20:42.317Z,20.42
2023-05-08T11:22:17.386Z,20.35
2023-05-08T11:23:25.841Z,20.49
2023-05-08T11:24:36.825Z,20.50
2023-05-08T11:25:46.322Z,20.55
2023-05-08T11:26:49.846Z,20.55
2023-05-08T11:28:12.930Z,20.59
2023-05-08T11:29:18.267Z,20.37
2023-05-08T11:30:38.163Z,20.23
2023-05-08T11:31:58.003Z,20.22
2023-05-08T11:33:16.499Z,20.02
2023-05-08T11:34:54.024Z,19.87
2023-05-08T11:36:00.600Z,19.81
2023-05-08T11:37:03.390Z,19.75
2023-05-08T11:38:41.296Z,19.58
2023-05-08T11:39:46.576Z,19.74
2023-05-08T11:40:58.334Z,19.74
2023-05-08T11:42:33.067Z,19.82
2023-05-08T11:44:14.911Z,19.90
2023-05-08T11:45:23.114Z,19.98
2023-05-08T11:46:39.510Z,19.96
2023-05-08T11:47:46.538Z,19.87
2023-05-08T11:48:49.402Z,19.96
2023-05-08T11:49:54.676Z,19.96
2023-05-08T11:50:57.881Z,19.90
2023-05-08T11:52:04.777Z,19.88
2023-05-08T11:53:07.839Z,19.87
2023-05-08T11:54:13.512Z,20.07
2023-05-08T11:55:20.288Z,19.94
2023-05-08T11:56:26.876Z,20.05
2023-05-08T11:57:31.429Z,20.12
2023-05-08T11:58:36.981Z,20.34
2023-05-08T11:59:45.234Z,20.53
2023-05-08T12:00:49.078Z,20.60
2023-05-08T12:02:07.504Z,20.81
2023-05-08T12:03:13.951Z,20.88
2023-05-08T12:04:19.489Z,21.19
2023-05-08T12:05:27.834Z,21.41
2023-05-08T12:06:33.047Z,21.66
2023-05-08T12:07:46.952Z,21.95
2023-05-08T12:08:49.550Z,22.24
2023-05-08T12:09:55.489Z,22.40
2023-05-08T12:11:01.184Z,22.63
2023-05-08T12:12:06.258Z,22.85
2023-05-08T12:13:19.178Z,23.02
2023-05-08T12:14:26.773Z,23.20
2023-05-08T12:15:29.557Z,23.38
2023-05-08T12:16:38.924Z,23.58
2023-05-08T12:17:42.186Z,23.64
2023-05-08T12:18:47.560Z,23.43
2023-05-08T12:20:04.632Z,23.63
2023-05-08T12:21:07.150Z,23.73
2023-05-08T12:22:12.737Z,24.05
2023-05-08T12:23:17.714Z,24.18
2023-05-08T12:24:25.798Z,24.55
2023-05-08T12:25:28.581Z,24.00
2023-05-08T12:26:38.986Z,23.82
2023-05-08T12:27:41.782Z,24.23
2023-05-08T12:28:49.648Z,24.25
2023-05-08T12:29:52.084Z,24.25
2023-05-08T12:30:57.664Z,24.60
2023-05-08T12:32:02.736Z,24.70
2023-05-08T12:33:06.344Z,25.09
2023-05-08T12:34:12.056Z,25.10
2023-05-08T12:35:15.895Z,25.57
2023-05-08T12:36:20.970Z,25.94
2023-05-08T12:37:28.266Z,25.57
2023-05-08T12:38:33.512Z,25.47
2023-05-08T12:39:37.851Z,24.43
2023-05-08T12:40:45.917Z,24.62
2023-05-08T12:41:52.726Z,24.56
2023-05-08T12:42:58.526Z,24.78
2023-05-08T12:44:03.703Z,24.40
2023-05-08T12:45:07.988Z,24.54
2023-05-08T12:46:17.347Z,24.41
2023-05-08T12:47:20.577Z,24.27
2023-05-08T12:48:26.790Z,24.25
2023-05-08T12:49:31.362Z,24.37
2023-05-08T12:50:38.705Z,24.38
2023-05-08T12:51:51.114Z,24.48
2023-05-08T12:52:53.898Z,24.70
2023-05-08T12:53:59.639Z,24.99
2023-05-08T12:55:02.718Z,25.19
2023-05-08T12:56:08.688Z,25.26
2023-05-08T12:57:15.153Z,25.33
2023-05-08T12:58:20.702Z,25.56
2023-05-08T12:59:32.400Z,25.74
2023-05-08T13:00:39.803Z,25.63
2023-05-08T13:01:45.296Z,25.42
2023-05-08T13:02:54.668Z,25.39
2023-05-08T13:04:03.166Z,25.28
2023-05-08T13:05:07.219Z,25.08
2023-05-08T13:06:23.640Z,24.82
2023-05-08T13:07:32.818Z,24.61
2023-05-08T13:08:39.356Z,24.14
2023-05-08T13:10:00.309Z,23.88
2023-05-08T13:11:07.249Z,23.39
2023-05-08T13:12:10.578Z,23.77
2023-05-08T13:13:19.913Z,23.94
2023-05-08T13:14:22.743Z,24.32
2023-05-08T13:15:28.096Z,24.64
2023-05-08T13:16:31.170Z,24.93
2023-05-08T13:17:36.809Z,25.35
2023-05-08T13:18:41.873Z,25.41
2023-05-08T13:19:44.771Z,25.57
2023-05-08T13:20:50.001Z,25.50
2023-05-08T13:21:53.330Z,25.11
2023-05-08T13:22:59.067Z,24.80
2023-05-08T13:24:04.359Z,24.58
2023-05-08T13:25:08.167Z,24.41
2023-05-08T13:26:13.346Z,24.15
2023-05-08T13:27:15.767Z,24.04
2023-05-08T13:28:23.764Z,23.88
2023-05-08T13:29:28.896Z,23.53
2023-05-08T13:30:34.175Z,23.53
2023-05-08T13:31:39.562Z,23.63
2023-05-08T13:32:42.377Z,23.84
2023-05-08T13:33:47.462Z,23.96
2023-05-08T13:34:51.649Z,24.21
2023-05-08T13:35:58.333Z,24.67
2023-05-08T13:37:00.958Z,24.68
2023-05-08T13:38:06.423Z,25.00
2023-05-08T13:39:09.052Z,25.06
2023-05-08T13:40:15.438Z,25.06
2023-05-08T13:41:20.625Z,25.06
2023-05-08T13:42:23.382Z,25.11
2023-05-08T13:43:31.344Z,25.08
2023-05-08T13:44:34.288Z,24.50
2023-05-08T13:45:39.685Z,24.59
2023-05-08T13:46:42.247Z,24.26
2023-05-08T13:47:48.688Z,24.34
2023-05-08T13:48:51.257Z,24.39
2023-05-08T13:49:56.625Z,23.71
2023-05-08T13:51:01.521Z,23.62
2023-05-08T13:52:05.205Z,23.51
2023-05-08T13:53:10.462Z,23.53
2023-05-08T13:54:12.547Z,22.96
2023-05-08T13:55:17.708Z,23.23
2023-05-08T13:56:23.622Z,23.46
2023-05-08T13:57:26.790Z,23.64
2023-05-08T13:58:34.327Z,23.88
2023-05-08T13:59:36.437Z,23.87
2023-05-08T14:00:41.078Z,24.24
2023-05-08T14:01:43.223Z,24.47
2023-05-08T14:02:49.549Z,24.62
2023-05-08T14:03:53.776Z,24.93
2023-05-08T14:04:58.483Z,25.32
2023-05-08T14:06:00.583Z,25.72
2023-05-08T14:07:05.231Z,26.39
2023-05-08T14:08:11.124Z,26.41
2023-05-08T14:09:13.146Z,26.77
2023-05-08T14:10:18.046Z,27.41
2023-05-08T14:11:20.168Z,28.04
2023-05-08T14:12:24.875Z,28.47
2023-05-08T14:13:27.053Z,29.02
2023-05-08T14:14:34.698Z,30.08
2023-05-08T14:15:42.192Z,30.97
2023-05-08T14:16:44.358Z,30.63
2023-05-08T14:17:49.039Z,31.52
2023-05-08T14:18:51.129Z,31.00
2023-05-08T14:19:55.822Z,31.05